Terminal Aerodrome Forecast
Issued by NWS

Home | Current Version | Previous Version | Text Only | Print | Product List | Glossary On
Versions: 1 2 3 4 5 6 7 8 9 10 11 12 13 14 15 16 17 18 19 20 21 22 23 24 25 26 27 28
000
FTUS41 KBUF 020900 AAA
TAFIAG
TAF AMD
KIAG 020900Z 0209/0306 22004KT P6SM BKN100
     FM021600 VRB03KT P6SM VCSH SCT060 OVC120
     FM022000 01005KT 6SM -SHRA SCT060 OVC120
     FM030300 VRB03KT P6SM BKN100=

USA.gov is the U.S. government's official web portal to all federal, state and local government web resources and services.